Erd, Hungary
Current Conditions -  °F | °C
As of 6:30 AM on Sunday 26 Oct 2014 (Local Time) from LHBP Reporting Station
Broken Clouds Broken Clouds  
Wind Chill: 37°   Ceiling: 3000
Heat Index: 37°   Visibility: 5mi
Dew Point: 37°   Wind: 3mph
Humidity: 100%   Direction: NA
Pressure: 30.36"   Gusts: NA
Location:  47.38°N, 18.91°E
Report Text: LHBP 260430Z VRB03KT 8000 BKN030 03/03 Q1028 NOSIG
Loading
Personal Weather Stations






























Interactive Weather Map
Tropical Storm Tracking
New forecast layout! Learn more

10-Day Weather Forecast

Advertisements
Track Severe Weather on mobile